Terminal Aerodrome Forecast
Issued by NWS Sioux Falls, SD

Home | Current Version | Previous Version | Text Only | Print | Product List | Glossary On
Versions: 1 2 3 4 5 6 7 8 9 10 11 12 13
000
FTUS43 KFSD 070818 AAA
TAFHON
TAF AMD
KHON 070818Z 0708/0806 23005KT P6SM VCSH SCT015 OVC035
      TEMPO 0708/0712 BKN015
     FM071400 28008KT P6SM BKN040
     FM071800 30015G22KT P6SM BKN040 BKN070
     FM080300 33011KT P6SM OVC035=

USA.gov is the U.S. government's official web portal to all federal, state and local government web resources and services.